• Join FlightAware (Why Join?)
  • Login
  • US Flag 
05:47PM EDT


 

Airport Tracker/Info


-or-


 

Live Flight TrackerFlight Track Log ✈ FDX1508 ✈ 16-Jul-2013 ✈ KMEM - KLAX

Flight Track Log - Related Links

Times and Time Zones

All times are in EDT time to prevent confusion due to time zone crossing. See the FDX1508 flight status page for this flight to view local times or setup timezone preferences in your user account.

Time Position Orientation Groundspeed Altitude Reporting Facility
EDT Latitude Longitude Course Direction KTS MPH feet Rate Location/Type
05:07AM 35.0667 -90.0000 270° West 191 220 1,300  Level KMEM
05:08AM 35.0667 -90.0833 270° West 277 319 3,900 2,880 Climbing KMEM
05:09AM 35.0667 -90.1667 270° West 290 334 7,100 3,360 Climbing KMEM
05:09AM 35.0886 -90.2556 287° West 302 348 9,800 3,000 Climbing Memphis Center
05:10AM 35.1053 -90.3597 281° West 322 371 12,600 2,220 Climbing Memphis Center
05:11AM 35.1242 -90.4867 280° West 362 417 14,300 1,680 Climbing Memphis Center
05:12AM 35.1469 -90.6339 281° West 423 487 16,000 1,800 Climbing Memphis Center
05:13AM 35.1672 -90.7939 279° West 467 537 18,000 2,040 Climbing Memphis Center
05:14AM 35.1897 -90.9389 281° West 488 562 20,100 2,100 Climbing Memphis Center
05:20AM 35.2830 -91.9680 281° West 497 572 32,500 1,980 Climbing FlightAware
05:21AM 35.2900 -92.1090 274° West 494 568 33,500 960 Climbing FlightAware
05:22AM 35.2960 -92.2170 274° West 496 571 34,000 300 Climbing FlightAware
05:22AM 35.3010 -92.3360 273° West 496 571 34,000  Level FlightAware
05:23AM 35.3080 -92.4780 273° West 498 573 34,000 240 Level FlightAware
05:24AM 35.3130 -92.5910 273° West 499 574 34,400 1,020 Climbing FlightAware
05:25AM 35.3190 -92.7120 274° West 500 575 35,500 1,200 Climbing FlightAware
05:25AM 35.3230 -92.8170 273° West 497 572 36,000 360 Climbing FlightAware
05:26AM 35.3290 -92.9460 273° West 500 575 36,000  Level FlightAware
05:27AM 35.3340 -93.0710 273° West 503 579 36,000  Level FlightAware
05:27AM 35.3380 -93.1710 273° West 503 579 36,000  Level FlightAware
05:28AM 35.3430 -93.2930 273° West 502 578 36,000  Level FlightAware
05:29AM 35.3470 -93.4060 273° West 501 577 36,000  Level FlightAware
05:29AM 35.3510 -93.5050 273° West 501 577 36,000  Level FlightAware
05:30AM 35.3550 -93.6220 272° West 502 578 36,000  Level FlightAware
05:31AM 35.3590 -93.7500 272° West 503 579 36,000  Level FlightAware
05:31AM 35.3630 -93.8610 273° West 504 580 36,000 60 Level FlightAware
05:32AM 35.3670 -93.9720 273° West 503 579 36,100 60 Climbing FlightAware
05:33AM 35.3710 -94.1000 272° West 500 575 36,100  Level FlightAware
05:33AM 35.3750 -94.2230 272° West 489 563 36,100 -120 Level FlightAware
05:34AM 35.3780 -94.3160 272° West 480 552 36,000 -120 Descending FlightAware
05:35AM 35.3810 -94.4260 272° West 473 544 36,000  Level FlightAware
05:35AM 35.3840 -94.5280 272° West 470 541 36,000  Level FlightAware
05:36AM 35.3880 -94.6580 272° West 471 542 36,000  Level FlightAware
05:37AM 35.3900 -94.7600 271° West 474 545 36,000  Level FlightAware
05:38AM 35.3940 -94.8810 272° West 479 551 36,000 60 Level FlightAware
05:38AM 35.3970 -95.0170 272° West 483 556 36,100 60 Climbing FlightAware
05:39AM 35.4000 -95.1350 272° West 485 558 36,100  Level FlightAware
05:40AM 35.4010 -95.2290 271° West 485 558 36,100  Level FlightAware
05:41AM 35.4060 -95.4160 272° West 488 562 36,100  Level FlightAware
05:42AM 35.4080 -95.5400 271° West 487 560 36,100 -120 Level FlightAware
05:42AM 35.4110 -95.6770 272° West 483 556 36,000 -120 Descending FlightAware
05:43AM 35.4130 -95.7660 272° West 483 556 36,000  Level FlightAware
05:44AM 35.4140 -95.8780 271° West 483 556 36,000  Level FlightAware
05:44AM 35.4170 -96.0280 271° West 481 554 36,000  Level FlightAware
05:45AM 35.4190 -96.1480 271° West 484 557 36,000  Level FlightAware
05:46AM 35.4210 -96.2470 271° West 488 562 36,000 60 Level FlightAware
05:46AM 35.4220 -96.3550 271° West 491 565 36,100 60 Climbing FlightAware
05:47AM 35.4240 -96.4700 271° West 492 566 36,100 -120 Level FlightAware
05:48AM 35.4250 -96.5750 271° West 491 565 36,000 -120 Descending FlightAware
05:48AM 35.4260 -96.6920 271° West 491 565 36,000  Level FlightAware
05:49AM 35.4270 -96.8060 271° West 490 564 36,000  Level FlightAware
05:50AM 35.4280 -96.9030 271° West 489 563 36,000  Level FlightAware
05:51AM 35.4300 -97.1100 271° West 487 560 36,000  Level FlightAware
05:52AM 35.4300 -97.2340 270° West 486 559 36,000  Level FlightAware
05:53AM 35.4310 -97.3660 271° West 486 559 36,000  Level FlightAware
05:53AM 35.4320 -97.4980 271° West 486 559 36,000  Level FlightAware
05:54AM 35.4320 -97.6130 270° West 488 562 36,000  Level FlightAware
05:55AM 35.4330 -97.7320 271° West 490 564 36,000  Level FlightAware
05:56AM 35.4330 -97.8940 270° West 496 571 36,000 60 Level FlightAware
05:56AM 35.4330 -97.9990 270° West 498 573 36,100 60 Climbing FlightAware
05:57AM 35.4330 -98.1180 270° West 501 577 36,100  Level FlightAware
05:58AM 35.4330 -98.2460 270° West 504 580 36,100  Level FlightAware
05:59AM 35.4310 -98.3520 269° West 503 579 36,100  Level FlightAware
05:59AM 35.4300 -98.4390 269° West 503 579 36,100  Level FlightAware
06:02AM 35.4230 -98.8930 269° West 503 579 36,100  Level FlightAware
06:03AM 35.4220 -98.9860 269° West 503 579 36,100  Level FlightAware
06:04AM 35.4200 -99.1020 269° West 503 579 36,100  Level FlightAware
06:04AM 35.4190 -99.1890 269° West 503 579 36,100  Level FlightAware
06:05AM 35.4170 -99.3060 269° West 503 579 36,100 -120 Level FlightAware
06:06AM 35.4220 -99.5750 271° West 482 555 36,000 -120 Descending FlightAware
06:07AM 35.4210 -99.6860 269° West 482 555 36,000  Level FlightAware
06:07AM 35.4190 -99.7700 268° West 482 555 36,000  Level FlightAware
06:08AM 35.4180 -99.8840 269° West 482 555 36,000  Level FlightAware
06:09AM 35.4160 -99.9960 269° West 482 555 36,000  Level FlightAware
06:10AM 35.4150 -100.0790 269° West 482 555 36,000  Level FlightAware
06:10AM 35.4130 -100.1910 269° West 482 555 36,000  Level FlightAware
06:11AM 35.4130 -100.2190 270° West 482 555 36,000  Level FlightAware
06:12AM 35.4100 -100.4350 269° West 482 555 36,000  Level FlightAware
06:13AM 35.4090 -100.5190 269° West 482 555 36,000  Level FlightAware
06:13AM 35.4070 -100.6330 269° West 482 555 36,000  Level FlightAware
06:14AM 35.4060 -100.7160 269° West 482 555 36,000 1,080 Level FlightAware
06:15AM 35.6328 -101.1531 269° West 502 578 38,000 840 Climbing Albuquerque Center
06:16AM 35.6575 -101.3200 280° West 502 578 38,000  Level Albuquerque Center
06:17AM 35.6822 -101.4847 281° West 499 574 38,000  Level Albuquerque Center
06:18AM 35.7025 -101.6492 279° West 495 570 38,000  Level Albuquerque Center
06:19AM 35.7200 -101.8114 278° West 488 562 38,000  Level Albuquerque Center
06:20AM 35.7144 -101.9761 268° West 488 562 38,000  Level Albuquerque Center
06:21AM 35.7064 -102.1453 267° West 497 572 38,000  Level Albuquerque Center
06:22AM 35.6953 -102.3139 265° West 499 574 38,000  Level Albuquerque Center
06:23AM 35.6842 -102.4833 265° West 500 575 38,000  Level Albuquerque Center
06:24AM 35.6758 -102.6514 267° West 497 572 38,000  Level Albuquerque Center
06:25AM 35.6644 -102.8192 265° West 496 571 38,000  Level Albuquerque Center
06:26AM 35.6522 -102.9942 265° West 488 562 38,000  Level Albuquerque Center
06:27AM 35.6411 -103.1619 265° West 488 562 38,000  Level Albuquerque Center
06:28AM 35.6306 -103.3306 266° West 491 565 38,000  Level Albuquerque Center
06:29AM 35.6183 -103.4942 265° West 482 555 38,000  Level Albuquerque Center
06:30AM 35.6069 -103.6586 265° West 481 554 38,000  Level Albuquerque Center
06:31AM 35.5958 -103.8225 265° West 480 552 38,000  Level Albuquerque Center
06:32AM 35.5825 -103.9878 264° West 484 557 38,000  Level Albuquerque Center
06:33AM 35.5711 -104.1489 265° West 478 550 38,000  Level Albuquerque Center
06:34AM 35.5581 -104.3100 264° West 476 548 38,000  Level Albuquerque Center
06:35AM 35.5453 -104.4703 264° West 473 544 38,000  Level Albuquerque Center
06:36AM 35.5317 -104.6294 264° West 471 542 38,000  Level Albuquerque Center
06:37AM 35.5192 -104.7894 265° West 469 540 38,000  Level Albuquerque Center
06:38AM 35.5056 -104.9478 264° West 467 537 38,100  Climbing Albuquerque Center
06:44AM 35.4360 -105.7680 264° West 460 529 38,000 -60 Descending FlightAware
06:44AM 35.4260 -105.8820 264° West 460 529 38,000  Level FlightAware
06:44AM 35.4240 -105.9020 263° West 460 529 38,000  Level FlightAware
06:45AM 35.4200 -105.9390 262° West 460 529 38,000  Level FlightAware
06:46AM 35.4000 -106.1620 264° West 462 532 38,000  Level FlightAware
06:47AM 35.3890 -106.2760 263° West 462 532 38,000  Level FlightAware
06:47AM 35.3790 -106.3810 263° West 464 534 38,000  Level FlightAware
06:48AM 35.3690 -106.4880 263° West 465 535 38,000  Level FlightAware
06:49AM 35.3580 -106.6000 263° West 466 536 38,000  Level FlightAware
06:50AM 35.3480 -106.7050 263° West 466 536 38,000  Level FlightAware
06:50AM 35.3360 -106.8260 263° West 466 536 38,000  Level FlightAware
06:51AM 35.3260 -106.9300 263° West 467 537 38,000  Level FlightAware
06:52AM 35.3140 -107.0460 263° West 468 539 38,000  Level FlightAware
06:52AM 35.3040 -107.1510 263° West 466 536 38,000  Level FlightAware
06:53AM 35.2890 -107.2970 263° West 467 537 38,000  Level FlightAware
06:54AM 35.2780 -107.3920 262° West 467 537 38,000  Level FlightAware
06:55AM 35.2650 -107.5200 263° West 469 540 38,000  Level FlightAware
06:56AM 35.2530 -107.6270 262° West 469 540 38,000  Level FlightAware
06:57AM 35.2350 -107.8120 263° West 472 543 38,100 60 Climbing FlightAware
06:57AM 35.2250 -107.9010 262° West 471 542 38,100  Level FlightAware
06:58AM 35.2120 -108.0090 262° West 471 542 38,100  Level FlightAware
06:59AM 35.2030 -108.0900 262° West 471 542 38,100  Level FlightAware
06:59AM 35.1910 -108.1980 262° West 471 542 38,100  Level FlightAware
07:01AM 35.1720 -108.3570 262° West 471 542 38,100  Level FlightAware
07:01AM 35.1600 -108.4650 262° West 471 542 38,100  Level FlightAware
07:02AM 35.1510 -108.5410 262° West 471 542 38,100  Level FlightAware
07:03AM 35.1380 -108.6510 262° West 471 542 38,100  Level FlightAware
07:03AM 35.1290 -108.7340 262° West 471 542 38,100 -120 Level FlightAware
07:04AM 35.1010 -109.0070 263° West 470 541 38,000 -120 Descending FlightAware
07:05AM 35.0910 -109.0800 261° West 470 541 38,000 60 Level FlightAware
07:06AM 35.0750 -109.2200 262° West 474 545 38,100  Climbing FlightAware
07:06AM 35.0600 -109.3631 262° West 475 547 38,100  Level Albuquerque Center
07:07AM 35.0417 -109.5153 262° West 474 545 38,100 -60 Level Albuquerque Center
07:13AM 34.9200 -110.4700 262° West 474 545 38,000 -60 Descending FlightAware
07:15AM 34.8790 -110.7830 261° West 473 544 38,000  Level FlightAware
07:16AM 34.8660 -110.8800 261° West 472 543 38,000  Level FlightAware
07:17AM 34.8520 -110.9910 261° West 472 543 38,000  Level FlightAware
07:17AM 34.8360 -111.1060 260° West 472 543 38,000  Level FlightAware
07:18AM 34.8220 -111.2100 261° West 471 542 38,000  Level FlightAware
07:19AM 34.8060 -111.3280 261° West 471 542 38,000  Level FlightAware
07:19AM 34.7930 -111.4240 261° West 472 543 38,000  Level FlightAware
07:20AM 34.7760 -111.5420 260° West 473 544 38,000  Level FlightAware
07:21AM 34.7630 -111.6370 261° West 475 547 38,000  Level FlightAware
07:22AM 34.7370 -111.8250 260° West 478 550 38,000  Level FlightAware
07:23AM 34.7190 -111.9490 260° West 479 551 38,100 60 Climbing FlightAware
07:23AM 34.7040 -112.0560 260° West 480 552 38,100  Level FlightAware
07:24AM 34.6880 -112.1700 260° West 479 551 38,100 -120 Level FlightAware
07:25AM 34.6730 -112.2720 260° West 474 545 38,000 -120 Descending FlightAware
07:25AM 34.6580 -112.3740 260° West 471 542 38,000  Level FlightAware
07:26AM 34.6420 -112.4860 260° West 470 541 38,000  Level FlightAware
07:27AM 34.6300 -112.5690 260° West 468 539 38,000  Level FlightAware
07:28AM 34.6100 -112.6980 259° West 470 541 38,000  Level FlightAware
07:28AM 34.5930 -112.8130 260° West 474 545 38,000 60 Level FlightAware
07:29AM 34.5780 -112.9180 260° West 476 548 38,100  Climbing FlightAware
07:31AM 34.5390 -113.1740 260° West 481 554 38,100  Level FlightAware
07:32AM 34.5200 -113.2930 259° West 482 555 38,100 -120 Level FlightAware
07:32AM 34.4980 -113.4360 259° West 481 554 38,000 -120 Descending FlightAware
07:33AM 34.4800 -113.5530 259° West 481 554 38,000  Level FlightAware
07:34AM 34.4640 -113.6590 260° West 482 555 38,000  Level FlightAware
07:34AM 34.4450 -113.7750 259° West 480 552 38,000  Level FlightAware
07:35AM 34.4290 -113.8810 260° West 479 551 38,000  Level FlightAware
07:36AM 34.4100 -113.9970 259° West 479 551 38,000  Level FlightAware
07:36AM 34.3940 -114.1020 260° West 479 551 38,000  Level FlightAware
07:37AM 34.3810 -114.2030 261° West 480 552 38,000  Level FlightAware
07:38AM 34.3670 -114.3090 261° West 482 555 38,000  Level FlightAware
07:38AM 34.3550 -114.4020 261° West 483 556 38,000  Level FlightAware
07:39AM 34.3450 -114.4720 260° West 484 557 38,000  Level FlightAware
07:40AM 34.3290 -114.5890 261° West 486 559 38,000  Level FlightAware
07:41AM 34.3020 -114.7800 260° West 489 563 38,000 60 Level FlightAware
07:41AM 34.2870 -114.8880 260° West 490 564 38,100 60 Climbing FlightAware
07:42AM 34.2700 -115.0100 260° West 489 563 38,100  Level FlightAware
07:43AM 34.2570 -115.1020 260° West 489 563 38,100 -120 Level FlightAware
07:43AM 34.2380 -115.2350 260° West 485 558 38,000 -120 Descending FlightAware
07:44AM 34.2260 -115.3180 260° West 484 557 38,000  Level FlightAware
07:45AM 34.2090 -115.4370 260° West 482 555 38,000  Level FlightAware
07:46AM 34.1900 -115.5640 260° West 480 552 38,000  Level FlightAware
07:46AM 34.1760 -115.6620 260° West 479 551 38,000  Level FlightAware
07:47AM 34.1610 -115.7670 260° West 478 550 38,000  Level FlightAware
07:48AM 34.1430 -115.8870 260° West 475 547 38,000 -180 Level FlightAware
07:48AM 34.1310 -115.9720 260° West 469 540 37,800 -1,380 Descending FlightAware
07:49AM 34.1150 -116.0780 260° West 467 537 36,300 -2,520 Descending FlightAware
07:50AM 34.0970 -116.1960 260° West 467 537 34,300 -2,820 Descending FlightAware
07:50AM 34.0820 -116.2910 259° West 468 539 32,400 -3,120 Descending FlightAware
07:51AM 34.0660 -116.3990 260° West 475 547 30,200 -3,360 Descending FlightAware
07:52AM 34.0470 -116.5170 259° West 478 550 27,700 -3,060 Descending FlightAware
07:52AM 34.0310 -116.6210 260° West 470 541 25,900 -2,220 Descending FlightAware
07:53AM 34.0190 -116.7040 260° West 451 519 24,900 -2,640 Descending FlightAware
07:54AM 33.9980 -116.8250 258° West 434 499 22,500 -3,060 Descending FlightAware
07:54AM 33.9840 -116.9220 260° West 416 479 20,600 -2,760 Descending FlightAware
07:55AM 33.9700 -117.0170 260° West 408 470 18,700 -2,520 Descending FlightAware
07:56AM 33.9560 -117.1150 260° West 405 466 17,000 -1,740 Descending FlightAware
07:56AM 33.9480 -117.2000 264° West 399 459 16,300 -1,020 Descending FlightAware
07:57AM 33.9390 -117.3010 264° West 394 453 15,600 -960 Descending FlightAware
07:58AM 33.9310 -117.3870 264° West 389 448 15,000 -900 Descending FlightAware
07:59AM 33.9230 -117.4810 264° West 385 443 14,400 -840 Descending FlightAware
07:59AM 33.9240 -117.5670 271° West 389 448 13,900 -840 Descending FlightAware
08:00AM 33.9370 -117.6500 281° West 386 444 13,300 -900 Descending FlightAware
08:01AM 33.9490 -117.7470 279° West 380 437 12,700 -840 Descending FlightAware
08:01AM 33.9600 -117.8280 279° West 374 430 12,200 -840 Descending FlightAware
08:02AM 33.9720 -117.9210 279° West 351 404 11,500 -780 Descending FlightAware
08:03AM 33.9780 -117.9810 277° West 324 373 11,200 -660 Descending FlightAware
08:03AM 33.9710 -118.0520 263° West 293 337 10,700 -660 Descending FlightAware
08:04AM 33.9660 -118.1340 266° West 290 334 10,200 -660 Descending FlightAware
08:05AM 33.9720 -118.1720 281° West 288 331 9,900 -660 Descending FlightAware
08:05AM 33.9760 -118.2050 278° West 287 330 9,700 -720 Descending FlightAware
08:05AM 33.9790 -118.2290 279° West 286 329 9,500 -720 Descending FlightAware
08:06AM 33.9860 -118.2760 280° West 287 330 9,200 -600 Descending FlightAware
08:06AM 33.9910 -118.3130 279° West 282 325 9,000 -600 Descending FlightAware
08:07AM 33.9970 -118.3550 280° West 283 326 8,700 -720 Descending FlightAware
08:07AM 34.0020 -118.3970 278° West 282 325 8,400 -720 Descending FlightAware
08:07AM 34.0050 -118.4150 281° West 280 322 8,300 -1,560 Descending FlightAware
08:08AM 34.0090 -118.4580 276° West 273 314 7,400 -1,860 Descending FlightAware
08:08AM 34.0110 -118.4930 274° West 265 305 6,700 -2,040 Descending FlightAware
08:09AM 34.0140 -118.5470 274° West 263 303 5,400 -2,100 Descending FlightAware
08:09AM 34.0160 -118.5690 276° West 263 303 4,900 -1,860 Descending FlightAware
08:09AM 34.0170 -118.5820 275° West 262 302 4,600 480 Descending FlightAware
08:10AM 34.0150 -118.5510 94° East 264 304 5,300 240 Climbing FlightAware
08:10AM 34.0160 -118.5720 273° West 263 303 4,800 -1,080 Descending FlightAware
08:10AM 34.0170 -118.5890 274° West 263 303 4,500 -540 Descending FlightAware
08:11AM 34.0180 -118.5980 278° West 262 302 4,300 -360 Descending FlightAware
08:11AM 34.0190 -118.6440 272° West 259 298 4,200 -2,460 Descending FlightAware
08:12AM 33.9300 -118.6060 160° South 183 211 2,100 -3,540 Descending FlightAware
08:12AM 33.9310 -118.5840 87° East 182 209 2,100 -420 Level FlightAware
08:13AM 33.9380 -118.5240 82° East 169 194 1,600 -600 Descending FlightAware
08:13AM 33.9400 -118.5010 84° East 154 177 1,300 -780 Descending FlightAware
08:14AM 33.9420 -118.4770 84° East 151 174 900 -900 Descending FlightAware
08:14AM 33.9450 -118.4540 81° East 153 176 500 -780 Descending FlightAware
08:15AM 33.9460 -118.4380 86° East 154 177 300  Descending FlightAware
08:15AM 33.9450 -118.4480 263° West 152 175 500  Climbing FlightAware
08:16AM 33.9490 -118.4190 81° East 153 176 300 -360 Descending FlightAware
08:23AM 33.9425 -118.4081 104° East  Level Estimated
08:24AM 33.9425 -118.4081 104° East  Level Estimated